sensor_id;sensor_type;location;lat;lon;timestamp;P1;durP1;ratioP1;P2;durP2;ratioP2
21293;SDS011;10806;52.250;21.066;2022-08-03T00:01:31;12.15;;;6.38;;
21293;SDS011;10806;52.250;21.066;2022-08-03T00:03:57;13.18;;;6.63;;
21293;SDS011;10806;52.250;21.066;2022-08-03T00:06:23;13.48;;;5.93;;
21293;SDS011;10806;52.250;21.066;2022-08-03T00:08:48;13.65;;;6.20;;
21293;SDS011;10806;52.250;21.066;2022-08-03T00:11:14;14.18;;;6.35;;
21293;SDS011;10806;52.250;21.066;2022-08-03T00:13:40;13.80;;;6.25;;
21293;SDS011;10806;52.250;21.066;2022-08-03T00:16:05;11.02;;;5.90;;
21293;SDS011;10806;52.250;21.066;2022-08-03T00:18:31;13.80;;;6.25;;
21293;SDS011;10806;52.250;21.066;2022-08-03T00:20:56;15.52;;;7.00;;
21293;SDS011;10806;52.250;21.066;2022-08-03T00:23:22;13.30;;;6.22;;
21293;SDS011;10806;52.250;21.066;2022-08-03T00:25:47;16.13;;;6.75;;
21293;SDS011;10806;52.250;21.066;2022-08-03T00:28:13;11.20;;;6.10;;
21293;SDS011;10806;52.250;21.066;2022-08-03T00:30:38;13.60;;;6.18;;
21293;SDS011;10806;52.250;21.066;2022-08-03T00:33:04;14.30;;;6.70;;
21293;SDS011;10806;52.250;21.066;2022-08-03T00:35:30;20.08;;;6.95;;
21293;SDS011;10806;52.250;21.066;2022-08-03T00:37:55;17.75;;;6.45;;
21293;SDS011;10806;52.250;21.066;2022-08-03T00:40:22;11.80;;;6.15;;
21293;SDS011;10806;52.250;21.066;2022-08-03T00:42:49;8.98;;;5.72;;
21293;SDS011;10806;52.250;21.066;2022-08-03T00:45:17;13.48;;;6.25;;
21293;SDS011;10806;52.250;21.066;2022-08-03T00:47:44;9.23;;;5.80;;
21293;SDS011;10806;52.250;21.066;2022-08-03T00:50:10;8.50;;;6.18;;
21293;SDS011;10806;52.250;21.066;2022-08-03T00:52:36;11.02;;;6.25;;
21293;SDS011;10806;52.250;21.066;2022-08-03T00:55:02;15.60;;;6.00;;
21293;SDS011;10806;52.250;21.066;2022-08-03T00:57:29;13.18;;;6.30;;
21293;SDS011;10806;52.250;21.066;2022-08-03T00:59:56;9.63;;;5.57;;
21293;SDS011;10806;52.250;21.066;2022-08-03T01:02:24;18.50;;;6.93;;
21293;SDS011;10806;52.250;21.066;2022-08-03T01:04:50;14.07;;;6.53;;
21293;SDS011;10806;52.250;21.066;2022-08-03T01:10:06;16.10;;;6.53;;
21293;SDS011;10806;52.250;21.066;2022-08-03T01:12:42;10.70;;;5.97;;
21293;SDS011;10806;52.250;21.066;2022-08-03T01:15:24;12.73;;;5.78;;
21293;SDS011;10806;52.250;21.066;2022-08-03T01:18:04;11.60;;;5.53;;
21293;SDS011;10806;52.250;21.066;2022-08-03T01:20:34;9.50;;;5.82;;
21293;SDS011;10806;52.250;21.066;2022-08-03T01:25:54;10.20;;;5.93;;
21293;SDS011;10806;52.250;21.066;2022-08-03T01:31:50;10.32;;;6.43;;
21293;SDS011;10806;52.250;21.066;2022-08-03T01:34:17;12.30;;;6.20;;
21293;SDS011;10806;52.250;21.066;2022-08-03T01:36:49;8.60;;;5.80;;
21293;SDS011;10806;52.250;21.066;2022-08-03T01:39:17;9.00;;;5.93;;
21293;SDS011;10806;52.250;21.066;2022-08-03T01:41:48;13.52;;;6.03;;
21293;SDS011;10806;52.250;21.066;2022-08-03T01:44:18;8.55;;;5.70;;
21293;SDS011;10806;52.250;21.066;2022-08-03T01:46:45;13.30;;;6.32;;
21293;SDS011;10806;52.250;21.066;2022-08-03T01:49:14;11.25;;;5.90;;
21293;SDS011;10806;52.250;21.066;2022-08-03T01:51:40;8.15;;;5.70;;
21293;SDS011;10806;52.250;21.066;2022-08-03T01:54:11;8.32;;;5.85;;
21293;SDS011;10806;52.250;21.066;2022-08-03T01:56:38;7.57;;;5.85;;
21293;SDS011;10806;52.250;21.066;2022-08-03T01:59:06;10.98;;;6.30;;
21293;SDS011;10806;52.250;21.066;2022-08-03T02:01:34;15.48;;;6.70;;
21293;SDS011;10806;52.250;21.066;2022-08-03T02:04:01;11.23;;;5.78;;
21293;SDS011;10806;52.250;21.066;2022-08-03T02:06:29;7.78;;;5.88;;
21293;SDS011;10806;52.250;21.066;2022-08-03T02:08:57;13.45;;;6.38;;
21293;SDS011;10806;52.250;21.066;2022-08-03T02:11:24;10.65;;;6.10;;
21293;SDS011;10806;52.250;21.066;2022-08-03T02:13:50;8.15;;;5.85;;
21293;SDS011;10806;52.250;21.066;2022-08-03T02:16:17;7.70;;;5.60;;
21293;SDS011;10806;52.250;21.066;2022-08-03T02:18:45;10.40;;;6.40;;
21293;SDS011;10806;52.250;21.066;2022-08-03T02:21:12;7.20;;;5.78;;
21293;SDS011;10806;52.250;21.066;2022-08-03T02:23:39;13.68;;;6.00;;
21293;SDS011;10806;52.250;21.066;2022-08-03T02:26:05;8.40;;;5.82;;
21293;SDS011;10806;52.250;21.066;2022-08-03T02:28:37;12.73;;;5.93;;
21293;SDS011;10806;52.250;21.066;2022-08-03T02:31:10;10.68;;;5.97;;
21293;SDS011;10806;52.250;21.066;2022-08-03T02:33:43;8.27;;;5.68;;
21293;SDS011;10806;52.250;21.066;2022-08-03T02:36:12;10.80;;;6.07;;
21293;SDS011;10806;52.250;21.066;2022-08-03T02:38:40;9.70;;;5.57;;
21293;SDS011;10806;52.250;21.066;2022-08-03T02:41:08;10.65;;;5.72;;
21293;SDS011;10806;52.250;21.066;2022-08-03T02:43:42;8.07;;;5.43;;
21293;SDS011;10806;52.250;21.066;2022-08-03T02:46:12;8.50;;;6.20;;
21293;SDS011;10806;52.250;21.066;2022-08-03T02:48:41;11.20;;;6.38;;
21293;SDS011;10806;52.250;21.066;2022-08-03T02:51:09;9.57;;;5.88;;
21293;SDS011;10806;52.250;21.066;2022-08-03T02:53:35;7.03;;;5.70;;
21293;SDS011;10806;52.250;21.066;2022-08-03T02:56:01;7.45;;;5.78;;
21293;SDS011;10806;52.250;21.066;2022-08-03T02:58:29;10.48;;;6.10;;
21293;SDS011;10806;52.250;21.066;2022-08-03T03:00:56;9.07;;;5.72;;
21293;SDS011;10806;52.250;21.066;2022-08-03T03:03:22;11.20;;;6.22;;
21293;SDS011;10806;52.250;21.066;2022-08-03T03:05:48;10.98;;;5.80;;
21293;SDS011;10806;52.250;21.066;2022-08-03T03:08:16;12.23;;;6.10;;
21293;SDS011;10806;52.250;21.066;2022-08-03T03:10:42;8.35;;;5.63;;
21293;SDS011;10806;52.250;21.066;2022-08-03T03:13:09;12.07;;;5.57;;
21293;SDS011;10806;52.250;21.066;2022-08-03T03:15:35;7.60;;;5.28;;
21293;SDS011;10806;52.250;21.066;2022-08-03T03:18:03;8.13;;;5.60;;
21293;SDS011;10806;52.250;21.066;2022-08-03T03:20:30;9.30;;;5.20;;
21293;SDS011;10806;52.250;21.066;2022-08-03T03:22:59;8.55;;;6.00;;
21293;SDS011;10806;52.250;21.066;2022-08-03T03:25:26;9.77;;;5.82;;
21293;SDS011;10806;52.250;21.066;2022-08-03T03:27:55;7.30;;;5.55;;
21293;SDS011;10806;52.250;21.066;2022-08-03T03:30:20;13.45;;;6.25;;
21293;SDS011;10806;52.250;21.066;2022-08-03T03:32:46;6.97;;;5.40;;
21293;SDS011;10806;52.250;21.066;2022-08-03T03:35:12;6.75;;;5.65;;
21293;SDS011;10806;52.250;21.066;2022-08-03T03:37:38;6.68;;;5.50;;
21293;SDS011;10806;52.250;21.066;2022-08-03T03:40:04;7.93;;;5.22;;
21293;SDS011;10806;52.250;21.066;2022-08-03T03:42:32;8.65;;;5.65;;
21293;SDS011;10806;52.250;21.066;2022-08-03T03:44:57;7.50;;;5.28;;
21293;SDS011;10806;52.250;21.066;2022-08-03T03:47:27;8.70;;;5.70;;
21293;SDS011;10806;52.250;21.066;2022-08-03T03:49:52;9.68;;;5.18;;
21293;SDS011;10806;52.250;21.066;2022-08-03T03:52:19;9.75;;;5.43;;
21293;SDS011;10806;52.250;21.066;2022-08-03T03:54:44;10.07;;;5.35;;
21293;SDS011;10806;52.250;21.066;2022-08-03T03:57:10;8.30;;;6.05;;
21293;SDS011;10806;52.250;21.066;2022-08-03T03:59:40;9.00;;;6.10;;
21293;SDS011;10806;52.250;21.066;2022-08-03T04:02:06;8.48;;;5.95;;
21293;SDS011;10806;52.250;21.066;2022-08-03T04:04:34;8.75;;;5.63;;
21293;SDS011;10806;52.250;21.066;2022-08-03T04:07:18;7.05;;;5.72;;
21293;SDS011;10806;52.250;21.066;2022-08-03T04:10:04;6.18;;;5.18;;
21293;SDS011;10806;52.250;21.066;2022-08-03T04:12:54;9.43;;;6.07;;
21293;SDS011;10806;52.250;21.066;2022-08-03T04:15:22;10.77;;;5.85;;
21293;SDS011;10806;52.250;21.066;2022-08-03T04:17:52;8.70;;;5.78;;
21293;SDS011;10806;52.250;21.066;2022-08-03T04:20:21;10.32;;;6.10;;
21293;SDS011;10806;52.250;21.066;2022-08-03T04:22:48;9.10;;;6.22;;
21293;SDS011;10806;52.250;21.066;2022-08-03T04:25:15;11.50;;;5.82;;
21293;SDS011;10806;52.250;21.066;2022-08-03T04:27:43;7.28;;;6.07;;
21293;SDS011;10806;52.250;21.066;2022-08-03T04:30:10;11.70;;;6.38;;
21293;SDS011;10806;52.250;21.066;2022-08-03T04:32:37;9.13;;;6.30;;
21293;SDS011;10806;52.250;21.066;2022-08-03T04:35:04;11.95;;;6.30;;
21293;SDS011;10806;52.250;21.066;2022-08-03T04:40:04;9.98;;;6.55;;
21293;SDS011;10806;52.250;21.066;2022-08-03T04:42:33;10.30;;;6.63;;
21293;SDS011;10806;52.250;21.066;2022-08-03T04:45:01;10.25;;;6.22;;
21293;SDS011;10806;52.250;21.066;2022-08-03T04:47:29;12.77;;;6.35;;
21293;SDS011;10806;52.250;21.066;2022-08-03T04:49:57;10.57;;;6.60;;
21293;SDS011;10806;52.250;21.066;2022-08-03T04:52:24;10.50;;;6.22;;
21293;SDS011;10806;52.250;21.066;2022-08-03T04:54:49;9.93;;;6.35;;
21293;SDS011;10806;52.250;21.066;2022-08-03T04:57:15;7.85;;;6.32;;
21293;SDS011;10806;52.250;21.066;2022-08-03T04:59:40;8.80;;;6.15;;
21293;SDS011;10806;52.250;21.066;2022-08-03T05:02:06;9.30;;;6.47;;
21293;SDS011;10806;52.250;21.066;2022-08-03T05:04:32;9.95;;;6.75;;
21293;SDS011;10806;52.250;21.066;2022-08-03T05:06:57;16.92;;;6.03;;
21293;SDS011;10806;52.250;21.066;2022-08-03T05:09:23;8.65;;;6.70;;
21293;SDS011;10806;52.250;21.066;2022-08-03T05:11:48;10.60;;;6.80;;
21293;SDS011;10806;52.250;21.066;2022-08-03T05:14:14;7.85;;;7.03;;
21293;SDS011;10806;52.250;21.066;2022-08-03T05:16:39;9.68;;;7.15;;
21293;SDS011;10806;52.250;21.066;2022-08-03T05:19:05;9.93;;;6.75;;
21293;SDS011;10806;52.250;21.066;2022-08-03T05:21:30;8.55;;;6.50;;
21293;SDS011;10806;52.250;21.066;2022-08-03T05:23:56;8.73;;;6.72;;
21293;SDS011;10806;52.250;21.066;2022-08-03T05:26:21;10.77;;;7.13;;
21293;SDS011;10806;52.250;21.066;2022-08-03T05:28:47;18.02;;;7.22;;
21293;SDS011;10806;52.250;21.066;2022-08-03T05:31:13;8.70;;;6.72;;
21293;SDS011;10806;52.250;21.066;2022-08-03T05:33:38;11.20;;;7.30;;
21293;SDS011;10806;52.250;21.066;2022-08-03T05:36:04;11.93;;;7.43;;
21293;SDS011;10806;52.250;21.066;2022-08-03T05:38:30;11.95;;;6.38;;
21293;SDS011;10806;52.250;21.066;2022-08-03T05:40:57;10.05;;;7.05;;
21293;SDS011;10806;52.250;21.066;2022-08-03T05:43:22;11.68;;;7.00;;
21293;SDS011;10806;52.250;21.066;2022-08-03T05:45:48;12.25;;;7.60;;
21293;SDS011;10806;52.250;21.066;2022-08-03T05:48:14;8.57;;;6.93;;
21293;SDS011;10806;52.250;21.066;2022-08-03T05:50:40;10.02;;;7.07;;
21293;SDS011;10806;52.250;21.066;2022-08-03T05:53:05;10.90;;;7.32;;
21293;SDS011;10806;52.250;21.066;2022-08-03T05:55:31;9.57;;;7.18;;
21293;SDS011;10806;52.250;21.066;2022-08-03T05:57:56;8.27;;;6.70;;
21293;SDS011;10806;52.250;21.066;2022-08-03T06:00:22;12.27;;;7.60;;
21293;SDS011;10806;52.250;21.066;2022-08-03T06:02:48;9.32;;;7.13;;
21293;SDS011;10806;52.250;21.066;2022-08-03T06:05:13;8.63;;;7.20;;
21293;SDS011;10806;52.250;21.066;2022-08-03T06:07:39;8.65;;;7.35;;
21293;SDS011;10806;52.250;21.066;2022-08-03T06:10:05;8.82;;;7.90;;
21293;SDS011;10806;52.250;21.066;2022-08-03T06:12:31;10.00;;;7.88;;
21293;SDS011;10806;52.250;21.066;2022-08-03T06:15:00;10.63;;;7.68;;
21293;SDS011;10806;52.250;21.066;2022-08-03T06:17:26;10.63;;;7.50;;
21293;SDS011;10806;52.250;21.066;2022-08-03T06:19:52;11.80;;;7.25;;
21293;SDS011;10806;52.250;21.066;2022-08-03T06:22:17;10.40;;;7.72;;
21293;SDS011;10806;52.250;21.066;2022-08-03T06:24:43;9.65;;;7.57;;
21293;SDS011;10806;52.250;21.066;2022-08-03T06:27:09;8.55;;;7.40;;
21293;SDS011;10806;52.250;21.066;2022-08-03T06:29:36;9.18;;;7.93;;
21293;SDS011;10806;52.250;21.066;2022-08-03T06:32:02;11.52;;;7.60;;
21293;SDS011;10806;52.250;21.066;2022-08-03T06:34:27;19.75;;;8.23;;
21293;SDS011;10806;52.250;21.066;2022-08-03T06:36:53;11.70;;;7.72;;
21293;SDS011;10806;52.250;21.066;2022-08-03T06:39:19;13.27;;;7.82;;
21293;SDS011;10806;52.250;21.066;2022-08-03T06:41:45;11.35;;;7.57;;
21293;SDS011;10806;52.250;21.066;2022-08-03T06:44:11;11.77;;;7.97;;
21293;SDS011;10806;52.250;21.066;2022-08-03T06:46:37;8.75;;;7.60;;
21293;SDS011;10806;52.250;21.066;2022-08-03T06:49:02;10.52;;;7.90;;
21293;SDS011;10806;52.250;21.066;2022-08-03T06:51:28;10.20;;;8.20;;
21293;SDS011;10806;52.250;21.066;2022-08-03T06:53:54;10.13;;;7.88;;
21293;SDS011;10806;52.250;21.066;2022-08-03T06:56:20;9.55;;;7.88;;
21293;SDS011;10806;52.250;21.066;2022-08-03T06:58:46;11.10;;;7.97;;
21293;SDS011;10806;52.250;21.066;2022-08-03T07:01:12;13.65;;;7.82;;
21293;SDS011;10806;52.250;21.066;2022-08-03T07:03:38;11.82;;;8.68;;
21293;SDS011;10806;52.250;21.066;2022-08-03T07:06:04;10.25;;;8.20;;
21293;SDS011;10806;52.250;21.066;2022-08-03T07:08:30;15.32;;;8.23;;
21293;SDS011;10806;52.250;21.066;2022-08-03T07:10:56;13.40;;;8.00;;
21293;SDS011;10806;52.250;21.066;2022-08-03T07:13:21;10.80;;;8.05;;
21293;SDS011;10806;52.250;21.066;2022-08-03T07:15:47;11.32;;;7.85;;
21293;SDS011;10806;52.250;21.066;2022-08-03T07:18:12;11.85;;;8.18;;
21293;SDS011;10806;52.250;21.066;2022-08-03T07:20:38;13.35;;;7.68;;
21293;SDS011;10806;52.250;21.066;2022-08-03T07:23:04;14.32;;;8.50;;
21293;SDS011;10806;52.250;21.066;2022-08-03T07:25:30;10.75;;;8.18;;
21293;SDS011;10806;52.250;21.066;2022-08-03T07:27:55;12.15;;;8.38;;
21293;SDS011;10806;52.250;21.066;2022-08-03T07:30:21;24.88;;;8.13;;
21293;SDS011;10806;52.250;21.066;2022-08-03T07:32:47;10.05;;;7.65;;
21293;SDS011;10806;52.250;21.066;2022-08-03T07:35:12;11.40;;;8.38;;
21293;SDS011;10806;52.250;21.066;2022-08-03T07:37:38;11.93;;;7.80;;
21293;SDS011;10806;52.250;21.066;2022-08-03T07:40:04;14.82;;;8.85;;
21293;SDS011;10806;52.250;21.066;2022-08-03T07:42:30;8.48;;;7.68;;
21293;SDS011;10806;52.250;21.066;2022-08-03T07:44:56;15.38;;;8.45;;
21293;SDS011;10806;52.250;21.066;2022-08-03T07:47:26;15.00;;;7.47;;
21293;SDS011;10806;52.250;21.066;2022-08-03T07:49:53;9.93;;;7.72;;
21293;SDS011;10806;52.250;21.066;2022-08-03T07:52:20;8.85;;;7.50;;
21293;SDS011;10806;52.250;21.066;2022-08-03T07:55:05;15.07;;;8.13;;
21293;SDS011;10806;52.250;21.066;2022-08-03T07:57:31;11.80;;;8.68;;
21293;SDS011;10806;52.250;21.066;2022-08-03T07:59:57;11.43;;;8.50;;
21293;SDS011;10806;52.250;21.066;2022-08-03T08:02:23;13.55;;;8.60;;
21293;SDS011;10806;52.250;21.066;2022-08-03T08:04:49;13.43;;;8.90;;
21293;SDS011;10806;52.250;21.066;2022-08-03T08:07:14;14.18;;;9.10;;
21293;SDS011;10806;52.250;21.066;2022-08-03T08:09:40;15.38;;;9.60;;
21293;SDS011;10806;52.250;21.066;2022-08-03T08:12:06;15.18;;;9.63;;
21293;SDS011;10806;52.250;21.066;2022-08-03T08:14:33;15.27;;;9.13;;
21293;SDS011;10806;52.250;21.066;2022-08-03T08:16:59;17.70;;;8.70;;
21293;SDS011;10806;52.250;21.066;2022-08-03T08:19:24;21.52;;;8.65;;
21293;SDS011;10806;52.250;21.066;2022-08-03T08:21:50;14.80;;;9.48;;
21293;SDS011;10806;52.250;21.066;2022-08-03T08:24:16;19.35;;;9.00;;
21293;SDS011;10806;52.250;21.066;2022-08-03T08:26:42;22.08;;;9.50;;
21293;SDS011;10806;52.250;21.066;2022-08-03T08:29:07;20.25;;;9.85;;
21293;SDS011;10806;52.250;21.066;2022-08-03T08:31:33;31.88;;;10.60;;
21293;SDS011;10806;52.250;21.066;2022-08-03T08:33:59;27.27;;;10.82;;
21293;SDS011;10806;52.250;21.066;2022-08-03T08:36:29;22.08;;;10.20;;
21293;SDS011;10806;52.250;21.066;2022-08-03T08:38:58;22.33;;;10.07;;
21293;SDS011;10806;52.250;21.066;2022-08-03T08:41:24;34.58;;;10.93;;
21293;SDS011;10806;52.250;21.066;2022-08-03T08:43:49;43.70;;;10.65;;
21293;SDS011;10806;52.250;21.066;2022-08-03T08:46:15;26.88;;;10.65;;
21293;SDS011;10806;52.250;21.066;2022-08-03T08:48:42;28.58;;;11.10;;
21293;SDS011;10806;52.250;21.066;2022-08-03T08:51:10;32.45;;;11.65;;
21293;SDS011;10806;52.250;21.066;2022-08-03T08:53:37;24.45;;;11.57;;
21293;SDS011;10806;52.250;21.066;2022-08-03T08:56:05;20.63;;;10.30;;
21293;SDS011;10806;52.250;21.066;2022-08-03T08:58:36;20.92;;;10.70;;
21293;SDS011;10806;52.250;21.066;2022-08-03T09:01:05;24.08;;;10.60;;
21293;SDS011;10806;52.250;21.066;2022-08-03T09:03:31;18.77;;;10.63;;
21293;SDS011;10806;52.250;21.066;2022-08-03T09:05:59;14.98;;;10.13;;
21293;SDS011;10806;52.250;21.066;2022-08-03T09:08:27;28.00;;;11.35;;
21293;SDS011;10806;52.250;21.066;2022-08-03T09:10:54;27.02;;;11.27;;
21293;SDS011;10806;52.250;21.066;2022-08-03T09:13:19;14.27;;;9.73;;
21293;SDS011;10806;52.250;21.066;2022-08-03T09:15:45;16.98;;;10.45;;
21293;SDS011;10806;52.250;21.066;2022-08-03T09:18:11;17.20;;;10.27;;
21293;SDS011;10806;52.250;21.066;2022-08-03T09:20:38;21.77;;;10.10;;
21293;SDS011;10806;52.250;21.066;2022-08-03T09:23:04;16.25;;;10.02;;
21293;SDS011;10806;52.250;21.066;2022-08-03T09:25:38;14.98;;;10.10;;
21293;SDS011;10806;52.250;21.066;2022-08-03T09:28:12;17.65;;;9.95;;
21293;SDS011;10806;52.250;21.066;2022-08-03T09:30:40;15.93;;;10.05;;
21293;SDS011;10806;52.250;21.066;2022-08-03T09:33:07;15.50;;;10.05;;
21293;SDS011;10806;52.250;21.066;2022-08-03T09:35:44;13.63;;;9.48;;
21293;SDS011;10806;52.250;21.066;2022-08-03T09:38:15;14.82;;;9.77;;
21293;SDS011;10806;52.250;21.066;2022-08-03T09:40:43;14.25;;;9.93;;
21293;SDS011;10806;52.250;21.066;2022-08-03T09:43:10;12.65;;;9.38;;
21293;SDS011;10806;52.250;21.066;2022-08-03T09:45:37;14.50;;;9.85;;
21293;SDS011;10806;52.250;21.066;2022-08-03T09:50:51;14.68;;;9.80;;
21293;SDS011;10806;52.250;21.066;2022-08-03T09:53:21;13.85;;;9.88;;
21293;SDS011;10806;52.250;21.066;2022-08-03T09:58:16;13.90;;;9.70;;
21293;SDS011;10806;52.250;21.066;2022-08-03T10:01:00;10.82;;;9.27;;
21293;SDS011;10806;52.250;21.066;2022-08-03T10:03:28;19.00;;;9.60;;
21293;SDS011;10806;52.250;21.066;2022-08-03T10:05:56;15.30;;;9.02;;
21293;SDS011;10806;52.250;21.066;2022-08-03T10:08:22;13.32;;;9.35;;
21293;SDS011;10806;52.250;21.066;2022-08-03T10:10:48;13.60;;;9.43;;
21293;SDS011;10806;52.250;21.066;2022-08-03T10:13:18;13.27;;;9.35;;
21293;SDS011;10806;52.250;21.066;2022-08-03T10:15:44;12.57;;;9.05;;
21293;SDS011;10806;52.250;21.066;2022-08-03T10:18:10;11.18;;;8.50;;
21293;SDS011;10806;52.250;21.066;2022-08-03T10:20:37;11.48;;;9.23;;
21293;SDS011;10806;52.250;21.066;2022-08-03T10:23:07;18.85;;;9.52;;
21293;SDS011;10806;52.250;21.066;2022-08-03T10:25:34;10.73;;;9.55;;
21293;SDS011;10806;52.250;21.066;2022-08-03T10:28:02;12.43;;;8.63;;
21293;SDS011;10806;52.250;21.066;2022-08-03T10:30:30;17.38;;;9.13;;
21293;SDS011;10806;52.250;21.066;2022-08-03T10:33:19;15.45;;;9.15;;
21293;SDS011;10806;52.250;21.066;2022-08-03T10:35:43;11.05;;;9.20;;
21293;SDS011;10806;52.250;21.066;2022-08-03T10:38:16;11.60;;;9.38;;
21293;SDS011;10806;52.250;21.066;2022-08-03T10:40:43;11.10;;;9.35;;
21293;SDS011;10806;52.250;21.066;2022-08-03T10:43:20;13.63;;;9.60;;
21293;SDS011;10806;52.250;21.066;2022-08-03T10:45:50;10.70;;;9.02;;
21293;SDS011;10806;52.250;21.066;2022-08-03T10:48:16;12.57;;;8.50;;
21293;SDS011;10806;52.250;21.066;2022-08-03T10:50:43;10.43;;;8.55;;
21293;SDS011;10806;52.250;21.066;2022-08-03T10:53:09;10.93;;;8.65;;
21293;SDS011;10806;52.250;21.066;2022-08-03T10:55:39;11.75;;;9.00;;
21293;SDS011;10806;52.250;21.066;2022-08-03T11:01:01;12.60;;;8.77;;
21293;SDS011;10806;52.250;21.066;2022-08-03T11:03:27;12.02;;;8.73;;
21293;SDS011;10806;52.250;21.066;2022-08-03T11:05:55;13.07;;;8.75;;
21293;SDS011;10806;52.250;21.066;2022-08-03T11:08:48;9.80;;;8.00;;
21293;SDS011;10806;52.250;21.066;2022-08-03T11:13:56;9.52;;;8.48;;
21293;SDS011;10806;52.250;21.066;2022-08-03T11:16:23;10.02;;;8.13;;
21293;SDS011;10806;52.250;21.066;2022-08-03T11:18:55;11.55;;;8.93;;
21293;SDS011;10806;52.250;21.066;2022-08-03T11:21:43;11.60;;;9.23;;
21293;SDS011;10806;52.250;21.066;2022-08-03T11:27:16;11.38;;;8.75;;
21293;SDS011;10806;52.250;21.066;2022-08-03T11:30:03;14.00;;;8.75;;
21293;SDS011;10806;52.250;21.066;2022-08-03T11:40:38;11.35;;;8.35;;
21293;SDS011;10806;52.250;21.066;2022-08-03T11:51:03;15.40;;;8.75;;
21293;SDS011;10806;52.250;21.066;2022-08-03T11:53:31;16.90;;;9.27;;
21293;SDS011;10806;52.250;21.066;2022-08-03T11:56:00;15.40;;;8.25;;
21293;SDS011;10806;52.250;21.066;2022-08-03T11:58:26;9.90;;;8.13;;
21293;SDS011;10806;52.250;21.066;2022-08-03T12:01:02;11.82;;;8.32;;
21293;SDS011;10806;52.250;21.066;2022-08-03T12:03:32;11.48;;;8.25;;
21293;SDS011;10806;52.250;21.066;2022-08-03T12:05:59;10.75;;;7.95;;
21293;SDS011;10806;52.250;21.066;2022-08-03T12:10:58;13.38;;;8.60;;
21293;SDS011;10806;52.250;21.066;2022-08-03T12:13:25;13.50;;;8.98;;
21293;SDS011;10806;52.250;21.066;2022-08-03T12:15:59;12.75;;;8.15;;
21293;SDS011;10806;52.250;21.066;2022-08-03T12:18:26;9.98;;;8.60;;
21293;SDS011;10806;52.250;21.066;2022-08-03T12:20:52;11.48;;;8.65;;
21293;SDS011;10806;52.250;21.066;2022-08-03T12:23:27;16.40;;;8.43;;
21293;SDS011;10806;52.250;21.066;2022-08-03T12:25:53;16.08;;;8.27;;
21293;SDS011;10806;52.250;21.066;2022-08-03T12:28:26;16.30;;;8.55;;
21293;SDS011;10806;52.250;21.066;2022-08-03T12:30:52;14.25;;;8.60;;
21293;SDS011;10806;52.250;21.066;2022-08-03T12:33:19;23.85;;;9.43;;
21293;SDS011;10806;52.250;21.066;2022-08-03T12:35:51;11.50;;;7.93;;
21293;SDS011;10806;52.250;21.066;2022-08-03T12:38:33;15.15;;;8.18;;
21293;SDS011;10806;52.250;21.066;2022-08-03T12:41:05;14.68;;;8.65;;
21293;SDS011;10806;52.250;21.066;2022-08-03T12:43:35;12.77;;;8.23;;
21293;SDS011;10806;52.250;21.066;2022-08-03T12:46:11;14.18;;;9.00;;
21293;SDS011;10806;52.250;21.066;2022-08-03T12:48:57;21.73;;;8.90;;
21293;SDS011;10806;52.250;21.066;2022-08-03T12:51:37;20.05;;;9.70;;
21293;SDS011;10806;52.250;21.066;2022-08-03T12:54:26;15.02;;;9.13;;
21293;SDS011;10806;52.250;21.066;2022-08-03T12:57:02;14.40;;;10.10;;
21293;SDS011;10806;52.250;21.066;2022-08-03T12:59:33;23.83;;;10.15;;
21293;SDS011;10806;52.250;21.066;2022-08-03T13:02:12;17.17;;;10.73;;
21293;SDS011;10806;52.250;21.066;2022-08-03T13:04:43;18.83;;;11.20;;
21293;SDS011;10806;52.250;21.066;2022-08-03T13:07:10;17.55;;;10.43;;
21293;SDS011;10806;52.250;21.066;2022-08-03T13:09:44;17.55;;;10.32;;
21293;SDS011;10806;52.250;21.066;2022-08-03T13:12:20;19.17;;;11.75;;
21293;SDS011;10806;52.250;21.066;2022-08-03T13:14:51;17.02;;;11.05;;
21293;SDS011;10806;52.250;21.066;2022-08-03T13:17:20;20.02;;;11.50;;
21293;SDS011;10806;52.250;21.066;2022-08-03T13:19:46;18.13;;;10.98;;
21293;SDS011;10806;52.250;21.066;2022-08-03T13:22:13;12.93;;;11.55;;
21293;SDS011;10806;52.250;21.066;2022-08-03T13:24:44;15.43;;;11.75;;
21293;SDS011;10806;52.250;21.066;2022-08-03T13:27:10;14.13;;;11.20;;
21293;SDS011;10806;52.250;21.066;2022-08-03T13:29:37;16.02;;;12.30;;
21293;SDS011;10806;52.250;21.066;2022-08-03T13:32:03;19.23;;;11.65;;
21293;SDS011;10806;52.250;21.066;2022-08-03T13:34:29;22.35;;;11.68;;
21293;SDS011;10806;52.250;21.066;2022-08-03T13:36:55;14.48;;;12.05;;
21293;SDS011;10806;52.250;21.066;2022-08-03T13:39:20;29.55;;;13.13;;
21293;SDS011;10806;52.250;21.066;2022-08-03T13:41:46;20.65;;;12.40;;
21293;SDS011;10806;52.250;21.066;2022-08-03T13:44:12;14.75;;;11.32;;
21293;SDS011;10806;52.250;21.066;2022-08-03T13:46:38;19.67;;;12.32;;
21293;SDS011;10806;52.250;21.066;2022-08-03T13:49:04;16.08;;;11.98;;
21293;SDS011;10806;52.250;21.066;2022-08-03T13:51:30;27.27;;;11.65;;
21293;SDS011;10806;52.250;21.066;2022-08-03T13:53:56;19.58;;;11.65;;
21293;SDS011;10806;52.250;21.066;2022-08-03T13:56:23;21.63;;;11.88;;
21293;SDS011;10806;52.250;21.066;2022-08-03T13:58:52;18.40;;;9.82;;
21293;SDS011;10806;52.250;21.066;2022-08-03T14:01:19;15.18;;;8.85;;
21293;SDS011;10806;52.250;21.066;2022-08-03T14:03:45;17.77;;;10.48;;
21293;SDS011;10806;52.250;21.066;2022-08-03T14:06:13;18.02;;;10.00;;
21293;SDS011;10806;52.250;21.066;2022-08-03T14:08:38;19.05;;;9.43;;
21293;SDS011;10806;52.250;21.066;2022-08-03T14:11:04;14.05;;;8.48;;
21293;SDS011;10806;52.250;21.066;2022-08-03T14:13:30;13.35;;;8.85;;
21293;SDS011;10806;52.250;21.066;2022-08-03T14:15:55;13.10;;;9.27;;
21293;SDS011;10806;52.250;21.066;2022-08-03T14:18:21;15.43;;;9.05;;
21293;SDS011;10806;52.250;21.066;2022-08-03T14:20:47;13.98;;;8.25;;
21293;SDS011;10806;52.250;21.066;2022-08-03T14:23:13;12.30;;;9.13;;
21293;SDS011;10806;52.250;21.066;2022-08-03T14:25:39;10.50;;;9.15;;
21293;SDS011;10806;52.250;21.066;2022-08-03T14:28:07;15.73;;;10.00;;
21293;SDS011;10806;52.250;21.066;2022-08-03T14:30:33;12.95;;;10.05;;
21293;SDS011;10806;52.250;21.066;2022-08-03T14:32:59;10.70;;;9.60;;
21293;SDS011;10806;52.250;21.066;2022-08-03T14:35:24;15.88;;;9.52;;
21293;SDS011;10806;52.250;21.066;2022-08-03T14:37:50;13.27;;;9.15;;
21293;SDS011;10806;52.250;21.066;2022-08-03T14:40:16;10.88;;;9.07;;
21293;SDS011;10806;52.250;21.066;2022-08-03T14:42:42;12.82;;;8.88;;
21293;SDS011;10806;52.250;21.066;2022-08-03T14:45:08;13.13;;;9.13;;
21293;SDS011;10806;52.250;21.066;2022-08-03T14:47:33;13.43;;;9.05;;
21293;SDS011;10806;52.250;21.066;2022-08-03T14:49:59;15.02;;;9.63;;
21293;SDS011;10806;52.250;21.066;2022-08-03T14:52:28;14.43;;;9.50;;
21293;SDS011;10806;52.250;21.066;2022-08-03T14:54:53;18.05;;;9.70;;
21293;SDS011;10806;52.250;21.066;2022-08-03T14:57:19;17.52;;;10.20;;
21293;SDS011;10806;52.250;21.066;2022-08-03T14:59:44;28.92;;;10.50;;
21293;SDS011;10806;52.250;21.066;2022-08-03T15:02:10;26.75;;;10.20;;
21293;SDS011;10806;52.250;21.066;2022-08-03T15:04:35;24.50;;;10.77;;
21293;SDS011;10806;52.250;21.066;2022-08-03T15:07:01;29.77;;;10.77;;
21293;SDS011;10806;52.250;21.066;2022-08-03T15:09:27;19.52;;;10.10;;
21293;SDS011;10806;52.250;21.066;2022-08-03T15:11:52;25.08;;;10.00;;